Terminal Aerodrome Forecast
Issued by NWS

Home | Current Version | Previous Version | Graphics & Text | Print | Product List | Glossary On
Versions: 1 2 3 4 5 6 7 8 9 10 11 12 13 14 15 16 17 18 19
000
FTUS43 KICT 271736
TAFSLN
TAF
KSLN 271736Z 2718/2818 17010KT P6SM SCT200
     FM272000 17015G22KT P6SM FEW250
     FM280100 17013KT P6SM SCT250
     FM281600 20014G21KT P6SM SCT050 SCT200=

USA.gov is the U.S. government's official web portal to all federal, state and local government web resources and services.